This is the latest recevied weather packets stored in our database for station/object N4OGP-WX. If no packets are shown the sender has not sent any weather packets the latest 10 day(s).
| Time | Temp. | Humidity | Pressure | Rain* | Wind** | Luminosity | Snow |
|---|---|---|---|---|---|---|---|
| 1777305676 | 26.67° C | 70% | 1014.9 hPa | 0 mm | - | - | - |
| 1777305616 | 26.67° C | 69% | 1015 hPa | 0 mm | - | - | - |
| 1777305556 | 26.11° C | 69% | 1015 hPa | 0 mm | - | - | - |
| 1777305496 | 26.11° C | 69% | 1015 hPa | 0 mm | - | - | - |
| 1777305436 | 26.11° C | 69% | 1015 hPa | 0 mm | - | - | - |
| 1777305346 | 26.11° C | 70% | 1015 hPa | 0 mm | - | - | - |
| 1777305286 | 26.11° C | 69% | 1015 hPa | 0 mm | - | - | - |
| 1777305196 | 26.11° C | 69% | 1015 hPa | 0 mm | - | - | - |
| 1777305136 | 23.89° C | 42% | 1020.4 hPa | 0 mm | - | - | - |
| 1777305076 | 26.67° C | 70% | 1015 hPa | 0 mm | - | - | - |
| 1777305016 | 26.67° C | 69% | 1015 hPa | 0 mm | - | - | - |
| 1777304926 | 23.89° C | 42% | 1020.4 hPa | 0 mm | - | - | - |
| 1777304866 | 26.67° C | 69% | 1015 hPa | 0 mm | - | - | - |
| 1777304776 | 23.89° C | 42% | 1020.4 hPa | 0 mm | - | - | - |
| 1777304716 | 23.89° C | 42% | 1020.4 hPa | 0 mm | - | - | - |
| 1777304656 | 26.67° C | 69% | 1015 hPa | 0 mm | - | - | - |
| 1777304596 | 26.67° C | 69% | 1015 hPa | 0 mm | - | - | - |
| 1777304536 | 26.67° C | 70% | 1015 hPa | 0 mm | - | - | - |
| 1777304476 | 23.89° C | 42% | 1020.4 hPa | 0 mm | - | - | - |
| 1777304416 | 26.67° C | 69% | 1015 hPa | 0 mm | - | - | - |
| 1777304356 | 26.67° C | 69% | 1015 hPa | 0 mm | - | - | - |
| 1777304296 | 23.89° C | 42% | 1020.4 hPa | 0 mm | - | - | - |
| 1777304236 | 27.22° C | 67% | 1015.1 hPa | 0 mm | - | - | - |
| 1777304176 | 23.89° C | 42% | 1020.4 hPa | 0 mm | - | - | - |
| 1777304116 | 27.22° C | 68% | 1015.1 hPa | 0 mm | - | - | - |
* Rain latest hour (hover to see other rain measurements)
** Current wind speed in m/s (hover to see current wind gust speed)